createdAt,value
2019-02-07T00:00:06.965Z,1012.96
2019-02-07T00:01:06.975Z,1012.95
2019-02-07T00:02:06.996Z,1012.95
2019-02-07T00:03:07.001Z,1012.95
2019-02-07T00:04:07.012Z,1012.92
2019-02-07T00:05:07.024Z,1012.91
2019-02-07T00:06:07.037Z,1012.84
2019-02-07T00:07:07.050Z,1012.85
2019-02-07T00:08:07.061Z,1012.78
2019-02-07T00:09:07.073Z,1012.80
2019-02-07T00:10:07.087Z,1012.84
2019-02-07T00:11:07.097Z,1012.78
2019-02-07T00:12:07.109Z,1012.79
2019-02-07T00:13:07.122Z,1012.77
2019-02-07T00:14:07.137Z,1012.78
2019-02-07T00:15:07.145Z,1012.74
2019-02-07T00:16:07.168Z,1012.76
2019-02-07T00:17:07.170Z,1012.70
2019-02-07T00:18:07.179Z,1012.69
2019-02-07T00:19:07.194Z,1012.70
2019-02-07T00:20:07.204Z,1012.65
2019-02-07T00:21:07.214Z,1012.70
2019-02-07T00:22:07.227Z,1012.69
2019-02-07T00:23:07.242Z,1012.66
2019-02-07T00:24:07.250Z,1012.65
2019-02-07T00:25:07.262Z,1012.63
2019-02-07T00:26:07.272Z,1012.59
2019-02-07T00:27:07.284Z,1012.60
2019-02-07T00:28:07.295Z,1012.57
2019-02-07T00:29:07.307Z,1012.61
2019-02-07T00:30:07.318Z,1012.62
2019-02-07T00:31:07.331Z,1012.63
2019-02-07T00:32:07.342Z,1012.62
2019-02-07T00:33:07.354Z,1012.59
2019-02-07T00:34:07.365Z,1012.54
2019-02-07T00:35:07.377Z,1012.53
2019-02-07T00:36:07.387Z,1012.53
2019-02-07T00:37:07.400Z,1012.52
2019-02-07T00:38:07.410Z,1012.53
2019-02-07T00:39:07.424Z,1012.51
2019-02-07T00:40:07.434Z,1012.52
2019-02-07T00:41:07.446Z,1012.51
2019-02-07T00:42:07.460Z,1012.55
2019-02-07T00:43:07.468Z,1012.52
2019-02-07T00:44:07.480Z,1012.44
2019-02-07T00:45:07.491Z,1012.41
2019-02-07T00:46:07.502Z,1012.45
2019-02-07T00:47:07.514Z,1012.45
2019-02-07T00:48:07.525Z,1012.37
2019-02-07T00:49:07.535Z,1012.41
2019-02-07T00:50:07.548Z,1012.40
2019-02-07T00:51:07.559Z,1012.37
2019-02-07T00:52:07.569Z,1012.40
2019-02-07T00:53:07.581Z,1012.36
2019-02-07T00:54:07.594Z,1012.33
2019-02-07T00:55:07.604Z,1012.35
2019-02-07T00:56:07.614Z,1012.36
2019-02-07T00:57:07.628Z,1012.43
2019-02-07T00:58:07.636Z,1012.41
2019-02-07T00:59:07.648Z,1012.47
2019-02-07T01:00:07.658Z,1012.45
2019-02-07T01:01:07.672Z,1012.41
2019-02-07T01:02:07.680Z,1012.39
2019-02-07T01:03:07.692Z,1012.40
2019-02-07T01:04:07.702Z,1012.36
2019-02-07T01:05:07.712Z,1012.33
2019-02-07T01:06:07.725Z,1012.29
2019-02-07T01:07:07.735Z,1012.30
2019-02-07T01:08:07.744Z,1012.27
2019-02-07T01:09:07.757Z,1012.27
2019-02-07T01:10:07.768Z,1012.22
2019-02-07T01:11:07.783Z,1012.18
2019-02-07T01:12:07.792Z,1012.13
2019-02-07T01:13:07.802Z,1012.13
2019-02-07T01:14:07.812Z,1012.06
2019-02-07T01:15:07.825Z,1012.05
2019-02-07T01:16:07.833Z,1012.03
2019-02-07T01:17:07.848Z,1012.02
2019-02-07T01:18:07.856Z,1012.01
2019-02-07T01:19:07.876Z,1011.99
2019-02-07T01:20:07.877Z,1012.03
2019-02-07T01:21:07.890Z,1012.01
2019-02-07T01:22:07.899Z,1012.00
2019-02-07T01:23:07.909Z,1011.95
2019-02-07T01:24:07.928Z,1011.98
2019-02-07T01:25:07.933Z,1011.95
2019-02-07T01:26:07.946Z,1011.92
2019-02-07T01:27:07.955Z,1011.94
2019-02-07T01:28:07.965Z,1011.84
2019-02-07T01:29:07.975Z,1011.87
2019-02-07T01:30:07.984Z,1011.83
2019-02-07T01:31:07.998Z,1011.86
2019-02-07T01:32:08.006Z,1011.84
2019-02-07T01:33:08.018Z,1011.84
2019-02-07T01:34:08.032Z,1011.82
2019-02-07T01:35:08.040Z,1011.79
2019-02-07T01:36:08.053Z,1011.75
2019-02-07T01:37:08.062Z,1011.81
2019-02-07T01:38:08.074Z,1011.83
2019-02-07T01:39:08.084Z,1011.82
2019-02-07T01:40:08.094Z,1011.82
2019-02-07T01:41:08.106Z,1011.80
2019-02-07T01:42:08.120Z,1011.80
2019-02-07T01:43:08.125Z,1011.74
2019-02-07T01:44:08.137Z,1011.78
2019-02-07T01:45:13.127Z,1011.76
2019-02-07T01:46:08.159Z,1011.79
2019-02-07T01:47:08.170Z,1011.74
2019-02-07T01:48:08.178Z,1011.79
2019-02-07T01:49:08.199Z,1011.75
2019-02-07T01:50:08.201Z,1011.80
2019-02-07T01:51:08.212Z,1011.84
2019-02-07T01:52:08.220Z,1011.76
2019-02-07T01:53:08.233Z,1011.80
2019-02-07T01:54:08.242Z,1011.76
2019-02-07T01:55:08.256Z,1011.76
2019-02-07T01:56:08.263Z,1011.75
2019-02-07T01:57:08.277Z,1011.80
2019-02-07T01:58:08.286Z,1011.80
2019-02-07T01:59:08.297Z,1011.80
2019-02-07T02:00:08.307Z,1011.75
2019-02-07T02:01:08.317Z,1011.70
2019-02-07T02:02:08.327Z,1011.65
2019-02-07T02:03:08.362Z,1011.55
2019-02-07T02:04:08.386Z,1011.52
2019-02-07T02:05:08.427Z,1011.51
2019-02-07T02:06:08.435Z,1011.52
2019-02-07T02:07:08.423Z,1011.46
2019-02-07T02:08:08.438Z,1011.44
2019-02-07T02:09:08.424Z,1011.43
2019-02-07T02:10:08.502Z,1011.41
2019-02-07T02:11:08.479Z,1011.38
2019-02-07T02:12:08.485Z,1011.40
2019-02-07T02:13:08.482Z,1011.38
2019-02-07T02:14:08.483Z,1011.39
2019-02-07T02:15:08.478Z,1011.39
2019-02-07T02:16:08.479Z,1011.39
2019-02-07T02:17:08.486Z,1011.40
2019-02-07T02:18:08.497Z,1011.36
2019-02-07T02:19:08.511Z,1011.32
2019-02-07T02:20:08.519Z,1011.28
2019-02-07T02:21:08.529Z,1011.22
2019-02-07T02:22:08.539Z,1011.15
2019-02-07T02:23:08.552Z,1011.10
2019-02-07T02:24:08.560Z,1011.12
2019-02-07T02:25:08.573Z,1011.10
2019-02-07T02:26:08.580Z,1011.06
2019-02-07T02:27:08.593Z,1011.06
2019-02-07T02:28:08.600Z,1011.06
2019-02-07T02:29:08.610Z,1011.11
2019-02-07T02:30:08.624Z,1011.08
2019-02-07T02:31:08.634Z,1011.10
2019-02-07T02:32:08.643Z,1011.08
2019-02-07T02:33:08.653Z,1011.07
2019-02-07T02:34:08.668Z,1011.04
2019-02-07T02:35:08.679Z,1011.04
2019-02-07T02:36:08.685Z,1011.04
2019-02-07T02:37:08.696Z,1011.04
2019-02-07T02:38:08.713Z,1010.98
2019-02-07T02:39:08.715Z,1010.97
2019-02-07T02:40:08.725Z,1010.95
2019-02-07T02:41:08.736Z,1010.95
2019-02-07T02:42:08.746Z,1010.99
2019-02-07T02:43:08.763Z,1010.95
2019-02-07T02:44:08.764Z,1010.91
2019-02-07T02:45:08.782Z,1010.89
2019-02-07T02:46:08.787Z,1010.86
2019-02-07T02:47:08.798Z,1010.84
2019-02-07T02:48:08.807Z,1010.79
2019-02-07T02:49:08.883Z,1010.78
2019-02-07T02:50:08.830Z,1010.73
2019-02-07T02:51:08.839Z,1010.77
2019-02-07T02:52:08.849Z,1010.76
2019-02-07T02:53:08.861Z,1010.77
2019-02-07T02:54:08.872Z,1010.75
2019-02-07T02:55:08.881Z,1010.74
2019-02-07T02:56:08.891Z,1010.73
2019-02-07T02:57:08.906Z,1010.73
2019-02-07T02:58:08.912Z,1010.75
2019-02-07T02:59:08.919Z,1010.72
2019-02-07T03:00:08.931Z,1010.75
2019-02-07T03:01:08.943Z,1010.71
2019-02-07T03:02:09.206Z,1010.72
2019-02-07T03:03:08.961Z,1010.73
2019-02-07T03:04:08.972Z,1010.74
2019-02-07T03:05:08.983Z,1010.77
2019-02-07T03:06:08.992Z,1010.75
2019-02-07T03:07:09.003Z,1010.71
2019-02-07T03:08:09.013Z,1010.71
2019-02-07T03:09:09.025Z,1010.66
2019-02-07T03:10:09.032Z,1010.65
2019-02-07T03:11:09.044Z,1010.69
2019-02-07T03:12:09.054Z,1010.63
2019-02-07T03:13:09.064Z,1010.65
2019-02-07T03:14:09.073Z,1010.66
2019-02-07T03:15:09.090Z,1010.66
2019-02-07T03:16:09.093Z,1010.59
2019-02-07T03:17:09.103Z,1010.58
2019-02-07T03:18:09.128Z,1010.53
2019-02-07T03:19:09.125Z,1010.51
2019-02-07T03:20:09.136Z,1010.54
2019-02-07T03:21:09.146Z,1010.48
2019-02-07T03:22:09.155Z,1010.45
2019-02-07T03:23:09.171Z,1010.45
2019-02-07T03:24:09.176Z,1010.45
2019-02-07T03:25:09.187Z,1010.43
2019-02-07T03:26:09.196Z,1010.45
2019-02-07T03:27:09.204Z,1010.39
2019-02-07T03:28:09.217Z,1010.43
2019-02-07T03:29:09.224Z,1010.41
2019-02-07T03:30:09.257Z,1010.36
2019-02-07T03:31:09.249Z,1010.32
2019-02-07T03:32:09.262Z,1010.31
2019-02-07T03:33:09.270Z,1010.28
2019-02-07T03:34:09.280Z,1010.25
2019-02-07T03:35:09.287Z,1010.24
2019-02-07T03:36:09.300Z,1010.22
2019-02-07T03:37:09.307Z,1010.30
2019-02-07T03:38:09.327Z,1010.29
2019-02-07T03:39:09.329Z,1010.25
2019-02-07T03:40:09.341Z,1010.21
2019-02-07T03:41:09.346Z,1010.19
2019-02-07T03:42:09.359Z,1010.18
2019-02-07T03:43:09.380Z,1010.20
2019-02-07T03:44:09.378Z,1010.11
2019-02-07T03:45:09.389Z,1010.09
2019-02-07T03:46:09.403Z,1010.09
2019-02-07T03:47:09.409Z,1010.12
2019-02-07T03:48:09.420Z,1010.06
2019-02-07T03:49:09.428Z,1010.13
2019-02-07T03:50:09.439Z,1010.12
2019-02-07T03:51:09.453Z,1010.09
2019-02-07T03:52:09.462Z,1010.11
2019-02-07T03:53:09.465Z,1010.08
2019-02-07T03:54:09.480Z,1010.01
2019-02-07T03:55:09.489Z,1010.08
2019-02-07T03:56:10.423Z,1010.08
2019-02-07T03:57:09.509Z,1010.05
2019-02-07T03:58:09.521Z,1010.05
2019-02-07T03:59:09.529Z,1010.06
2019-02-07T04:00:09.535Z,1009.99
2019-02-07T04:01:09.547Z,1009.99
2019-02-07T04:02:09.560Z,1010.01
2019-02-07T04:03:09.566Z,1010.02
2019-02-07T04:04:09.576Z,1010.01
2019-02-07T04:05:09.589Z,1009.99
2019-02-07T04:06:09.596Z,1010.03
2019-02-07T04:07:09.605Z,1010.01
2019-02-07T04:08:09.615Z,1009.99
2019-02-07T04:09:09.626Z,1010.03
2019-02-07T04:10:09.645Z,1010.01
2019-02-07T04:11:09.647Z,1010.03
2019-02-07T04:12:09.655Z,1009.99
2019-02-07T04:13:09.663Z,1010.01
2019-02-07T04:14:09.676Z,1009.97
2019-02-07T04:15:09.683Z,1010.01
2019-02-07T04:16:15.279Z,1009.97
2019-02-07T04:17:09.704Z,1009.98
2019-02-07T04:18:09.714Z,1009.97
2019-02-07T04:19:09.732Z,1010.00
2019-02-07T04:20:09.740Z,1009.97
2019-02-07T04:21:09.745Z,1009.96
2019-02-07T04:22:09.752Z,1009.98
2019-02-07T04:23:09.762Z,1009.88
2019-02-07T04:24:09.774Z,1009.91
2019-02-07T04:25:09.789Z,1009.89
2019-02-07T04:26:09.792Z,1009.88
2019-02-07T04:27:09.802Z,1009.85
2019-02-07T04:28:09.809Z,1009.83
2019-02-07T04:29:09.820Z,1009.85
2019-02-07T04:30:09.828Z,1009.86
2019-02-07T04:31:09.840Z,1009.85
2019-02-07T04:32:09.850Z,1009.80
2019-02-07T04:33:09.860Z,1009.72
2019-02-07T04:34:09.871Z,1009.68
2019-02-07T04:35:09.890Z,1009.66
2019-02-07T04:36:09.891Z,1009.63
2019-02-07T04:37:09.901Z,1009.62
2019-02-07T04:38:09.910Z,1009.61
2019-02-07T04:39:09.921Z,1009.62
2019-02-07T04:40:12.116Z,1009.63
2019-02-07T04:41:09.937Z,1009.59
2019-02-07T04:42:09.948Z,1009.56
2019-02-07T04:43:09.959Z,1009.52
2019-02-07T04:44:09.969Z,1009.51
2019-02-07T04:45:09.975Z,1009.54
2019-02-07T04:46:09.985Z,1009.51
2019-02-07T04:47:10.002Z,1009.48
2019-02-07T04:48:10.007Z,1009.48
2019-02-07T04:49:10.015Z,1009.46
2019-02-07T04:50:10.028Z,1009.47
2019-02-07T04:51:10.035Z,1009.45
2019-02-07T04:52:10.045Z,1009.40
2019-02-07T04:53:10.055Z,1009.45
2019-02-07T04:54:10.067Z,1009.42
2019-02-07T04:55:10.074Z,1009.38
2019-02-07T04:56:10.087Z,1009.40
2019-02-07T04:57:10.094Z,1009.38
2019-02-07T04:58:10.102Z,1009.35
2019-02-07T04:59:10.117Z,1009.23
2019-02-07T05:00:10.261Z,1009.28
2019-02-07T05:01:10.201Z,1009.19
2019-02-07T05:02:10.210Z,1009.24
2019-02-07T05:03:10.210Z,1009.18
2019-02-07T05:04:10.209Z,1009.15
2019-02-07T05:05:10.201Z,1009.21
2019-02-07T05:06:10.200Z,1009.22
2019-02-07T05:07:10.255Z,1009.22
2019-02-07T05:08:10.256Z,1009.23
2019-02-07T05:09:10.271Z,1009.25
2019-02-07T05:10:10.273Z,1009.22
2019-02-07T05:11:10.260Z,1009.27
2019-02-07T05:12:10.282Z,1009.22
2019-02-07T05:13:10.253Z,1009.20
2019-02-07T05:14:10.263Z,1009.13
2019-02-07T05:15:10.279Z,1009.12
2019-02-07T05:16:10.359Z,1009.08
2019-02-07T05:17:10.286Z,1009.09
2019-02-07T05:18:10.295Z,1009.02
2019-02-07T05:19:10.371Z,1009.01
2019-02-07T05:20:10.323Z,1008.99
2019-02-07T05:21:10.325Z,1009.03
2019-02-07T05:22:10.335Z,1009.03
2019-02-07T05:23:10.345Z,1009.04
2019-02-07T05:24:10.354Z,1009.03
2019-02-07T05:25:10.367Z,1008.96
2019-02-07T05:26:10.379Z,1008.98
2019-02-07T05:27:10.394Z,1008.95
2019-02-07T05:28:10.392Z,1008.92
2019-02-07T05:29:10.403Z,1008.92
2019-02-07T05:30:10.414Z,1008.93
2019-02-07T05:31:10.425Z,1008.90
2019-02-07T05:32:10.430Z,1008.92
2019-02-07T05:33:10.445Z,1008.91
2019-02-07T05:34:10.451Z,1008.94
2019-02-07T05:35:10.462Z,1008.91
2019-02-07T05:36:10.469Z,1008.89
2019-02-07T05:37:10.480Z,1008.86
2019-02-07T05:38:10.493Z,1008.86
2019-02-07T05:39:10.500Z,1008.84
2019-02-07T05:40:10.511Z,1008.83
2019-02-07T05:41:10.519Z,1008.83
2019-02-07T05:42:10.531Z,1008.86
2019-02-07T05:43:10.547Z,1008.88
2019-02-07T05:44:10.555Z,1008.88
2019-02-07T05:45:10.559Z,1008.88
2019-02-07T05:46:10.571Z,1008.77
2019-02-07T05:47:10.580Z,1008.82
2019-02-07T05:48:10.589Z,1008.79
2019-02-07T05:49:10.601Z,1008.75
2019-02-07T05:50:10.611Z,1008.79
2019-02-07T05:51:10.619Z,1008.72
2019-02-07T05:52:10.628Z,1008.78
2019-02-07T05:53:10.642Z,1008.77
2019-02-07T05:54:10.648Z,1008.73
2019-02-07T05:55:10.660Z,1008.76
2019-02-07T05:56:10.670Z,1008.71
2019-02-07T05:57:10.677Z,1008.68
2019-02-07T05:58:10.689Z,1008.72
2019-02-07T05:59:10.699Z,1008.72
2019-02-07T06:00:10.709Z,1008.73
2019-02-07T06:01:10.719Z,1008.76
2019-02-07T06:02:10.730Z,1008.77
2019-02-07T06:03:10.736Z,1008.75
2019-02-07T06:04:10.746Z,1008.68
2019-02-07T06:05:10.755Z,1008.68
2019-02-07T06:06:10.763Z,1008.61
2019-02-07T06:07:10.776Z,1008.57
2019-02-07T06:08:10.785Z,1008.59
2019-02-07T06:09:10.794Z,1008.64
2019-02-07T06:10:10.806Z,1008.67
2019-02-07T06:11:10.820Z,1008.68
2019-02-07T06:12:10.827Z,1008.65
2019-02-07T06:13:10.838Z,1008.62
2019-02-07T06:14:10.844Z,1008.60
2019-02-07T06:15:10.855Z,1008.59
2019-02-07T06:16:10.867Z,1008.58
2019-02-07T06:17:10.873Z,1008.59
2019-02-07T06:18:10.885Z,1008.58
2019-02-07T06:19:10.894Z,1008.56
2019-02-07T06:20:10.903Z,1008.52
2019-02-07T06:21:10.993Z,1008.48
2019-02-07T06:22:10.919Z,1008.47
2019-02-07T06:23:10.932Z,1008.45
2019-02-07T06:24:10.940Z,1008.43
2019-02-07T06:25:10.957Z,1008.43
2019-02-07T06:26:10.969Z,1008.38
2019-02-07T06:27:10.972Z,1008.40
2019-02-07T06:28:10.981Z,1008.49
2019-02-07T06:29:10.991Z,1008.44
2019-02-07T06:30:11.001Z,1008.42
2019-02-07T06:31:11.010Z,1008.40
2019-02-07T06:32:11.019Z,1008.37
2019-02-07T06:33:11.030Z,1008.38
2019-02-07T06:34:11.039Z,1008.42
2019-02-07T06:35:11.050Z,1008.36
2019-02-07T06:36:11.062Z,1008.43
2019-02-07T06:37:11.070Z,1008.43
2019-02-07T06:38:11.083Z,1008.43
2019-02-07T06:39:11.088Z,1008.44
2019-02-07T06:40:11.102Z,1008.40
2019-02-07T06:41:11.110Z,1008.41
2019-02-07T06:42:11.121Z,1008.38
2019-02-07T06:43:11.131Z,1008.35
2019-02-07T06:44:11.148Z,1008.33
2019-02-07T06:45:11.153Z,1008.35
2019-02-07T06:46:11.162Z,1008.31
2019-02-07T06:47:13.431Z,1008.23
2019-02-07T06:48:11.180Z,1008.24
2019-02-07T06:49:11.190Z,1008.22
2019-02-07T06:50:11.202Z,1008.19
2019-02-07T06:51:11.212Z,1008.19
2019-02-07T06:52:11.221Z,1008.20
2019-02-07T06:53:11.389Z,1008.20
2019-02-07T06:54:11.243Z,1008.22
2019-02-07T06:55:11.256Z,1008.16
2019-02-07T06:56:11.261Z,1008.16
2019-02-07T06:57:11.274Z,1008.19
2019-02-07T06:58:11.287Z,1008.17
2019-02-07T06:59:11.295Z,1008.15
2019-02-07T07:00:11.304Z,1008.19
2019-02-07T07:01:11.315Z,1008.14
2019-02-07T07:02:11.325Z,1008.18
2019-02-07T07:03:11.337Z,1008.14
2019-02-07T07:04:11.343Z,1008.14
2019-02-07T07:05:11.355Z,1008.17
2019-02-07T07:06:11.366Z,1008.15
2019-02-07T07:07:11.378Z,1008.21
2019-02-07T07:08:11.385Z,1008.19
2019-02-07T07:09:11.397Z,1008.15
2019-02-07T07:10:11.409Z,1008.12
2019-02-07T07:11:11.419Z,1008.12
2019-02-07T07:12:11.431Z,1008.13
2019-02-07T07:13:11.437Z,1008.14
2019-02-07T07:14:11.451Z,1008.09
2019-02-07T07:15:11.459Z,1008.16
2019-02-07T07:16:11.470Z,1008.22
2019-02-07T07:17:11.481Z,1008.20
2019-02-07T07:18:11.494Z,1008.24
2019-02-07T07:19:11.505Z,1008.18
2019-02-07T07:20:11.514Z,1008.17
2019-02-07T07:21:11.524Z,1008.15
2019-02-07T07:22:11.534Z,1008.13
2019-02-07T07:23:11.545Z,1008.13
2019-02-07T07:24:11.555Z,1008.15
2019-02-07T07:25:11.570Z,1008.13
2019-02-07T07:26:11.578Z,1008.11
2019-02-07T07:27:11.591Z,1008.20
2019-02-07T07:28:11.596Z,1008.20
2019-02-07T07:29:11.694Z,1008.24
2019-02-07T07:30:11.619Z,1008.27
2019-02-07T07:31:11.630Z,1008.21
2019-02-07T07:32:11.643Z,1008.21
2019-02-07T07:33:11.653Z,1008.18
2019-02-07T07:34:11.664Z,1008.19
2019-02-07T07:35:11.675Z,1008.22
2019-02-07T07:36:11.685Z,1008.20
2019-02-07T07:37:11.697Z,1008.16
2019-02-07T07:38:11.709Z,1008.11
2019-02-07T07:39:11.720Z,1008.11
2019-02-07T07:40:11.731Z,1008.09
2019-02-07T07:41:11.738Z,1008.13
2019-02-07T07:42:11.753Z,1008.11
2019-02-07T07:43:11.765Z,1008.12
2019-02-07T07:44:11.773Z,1008.04
2019-02-07T07:45:11.786Z,1008.03
2019-02-07T07:46:11.796Z,1007.95
2019-02-07T07:47:11.807Z,1007.99
2019-02-07T07:48:11.819Z,1007.97
2019-02-07T07:49:11.832Z,1007.93
2019-02-07T07:50:11.845Z,1007.96
2019-02-07T07:51:11.855Z,1007.90
2019-02-07T07:52:11.865Z,1007.82
2019-02-07T07:53:11.875Z,1007.76
2019-02-07T07:54:11.887Z,1007.80
2019-02-07T07:55:11.911Z,1007.81
2019-02-07T07:56:11.991Z,1007.81
2019-02-07T07:57:11.988Z,1007.83
2019-02-07T07:58:11.988Z,1007.80
2019-02-07T07:59:12.033Z,1007.81
2019-02-07T08:00:11.979Z,1007.75
2019-02-07T08:01:12.044Z,1007.74
2019-02-07T08:02:12.034Z,1007.72
2019-02-07T08:03:12.054Z,1007.72
2019-02-07T08:04:12.040Z,1007.73
2019-02-07T08:05:12.044Z,1007.76
2019-02-07T08:06:12.046Z,1007.69
2019-02-07T08:07:12.035Z,1007.72
2019-02-07T08:08:12.046Z,1007.70
2019-02-07T08:09:12.059Z,1007.67
2019-02-07T08:10:12.083Z,1007.70
2019-02-07T08:11:12.083Z,1007.67
2019-02-07T08:12:12.090Z,1007.65
2019-02-07T08:13:12.109Z,1007.67
2019-02-07T08:14:12.117Z,1007.62
2019-02-07T08:15:12.136Z,1007.60
2019-02-07T08:16:12.139Z,1007.54
2019-02-07T08:17:12.153Z,1007.50
2019-02-07T08:18:12.166Z,1007.52
2019-02-07T08:19:12.175Z,1007.47
2019-02-07T08:20:12.186Z,1007.46
2019-02-07T08:21:12.201Z,1007.49
2019-02-07T08:22:12.212Z,1007.48
2019-02-07T08:23:12.223Z,1007.51
2019-02-07T08:24:12.235Z,1007.51
2019-02-07T08:25:12.249Z,1007.49
2019-02-07T08:26:12.256Z,1007.48
2019-02-07T08:27:12.271Z,1007.41
2019-02-07T08:28:12.281Z,1007.39
2019-02-07T08:29:12.295Z,1007.39
2019-02-07T08:30:12.304Z,1007.34
2019-02-07T08:31:12.314Z,1007.38
2019-02-07T08:32:12.325Z,1007.38
2019-02-07T08:33:12.339Z,1007.40
2019-02-07T08:34:12.352Z,1007.41
2019-02-07T08:35:12.364Z,1007.37
2019-02-07T08:36:12.376Z,1007.33
2019-02-07T08:37:12.386Z,1007.30
2019-02-07T08:38:12.399Z,1007.23
2019-02-07T08:39:12.409Z,1007.18
2019-02-07T08:40:12.422Z,1007.24
2019-02-07T08:41:12.435Z,1007.26
2019-02-07T08:42:12.445Z,1007.22
2019-02-07T08:43:12.459Z,1007.18
2019-02-07T08:44:14.154Z,1007.13
2019-02-07T08:45:12.490Z,1007.14
2019-02-07T08:46:12.491Z,1007.16
2019-02-07T08:47:12.506Z,1007.12
2019-02-07T08:48:12.518Z,1007.12
2019-02-07T08:49:12.540Z,1007.09
2019-02-07T08:50:12.540Z,1007.11
2019-02-07T08:51:12.557Z,1007.12
2019-02-07T08:52:12.567Z,1007.10
2019-02-07T08:53:12.576Z,1007.10
2019-02-07T08:54:12.590Z,1007.07
2019-02-07T08:55:12.601Z,1007.06
2019-02-07T08:56:12.612Z,1007.04
2019-02-07T08:57:12.625Z,1007.00
2019-02-07T08:58:12.637Z,1006.97
2019-02-07T08:59:12.650Z,1006.96
2019-02-07T09:00:12.660Z,1006.92
2019-02-07T09:01:12.675Z,1006.92
2019-02-07T09:02:12.688Z,1006.83
2019-02-07T09:03:12.702Z,1006.87
2019-02-07T09:04:12.711Z,1006.86
2019-02-07T09:05:12.723Z,1006.81
2019-02-07T09:06:12.735Z,1006.81
2019-02-07T09:07:12.747Z,1006.70
2019-02-07T09:08:12.759Z,1006.76
2019-02-07T09:09:12.772Z,1006.73
2019-02-07T09:10:12.784Z,1006.75
2019-02-07T09:11:12.796Z,1006.74
2019-02-07T09:12:12.810Z,1006.78
2019-02-07T09:13:12.822Z,1006.75
2019-02-07T09:14:12.835Z,1006.77
2019-02-07T09:15:12.847Z,1006.72
2019-02-07T09:16:12.859Z,1006.72
2019-02-07T09:17:14.478Z,1006.68
2019-02-07T09:18:13.368Z,1006.65
2019-02-07T09:19:12.897Z,1006.72
2019-02-07T09:20:12.907Z,1006.68
2019-02-07T09:21:12.928Z,1006.68
2019-02-07T09:22:12.932Z,1006.70
2019-02-07T09:23:12.950Z,1006.71
2019-02-07T09:24:12.957Z,1006.71
2019-02-07T09:25:12.968Z,1006.72
2019-02-07T09:26:12.980Z,1006.66
2019-02-07T09:27:12.994Z,1006.62
2019-02-07T09:28:13.006Z,1006.62
2019-02-07T09:29:13.017Z,1006.58
2019-02-07T09:30:13.032Z,1006.61
2019-02-07T09:31:13.045Z,1006.53
2019-02-07T09:32:13.062Z,1006.65
2019-02-07T09:33:13.068Z,1006.63
2019-02-07T09:34:13.080Z,1006.66
2019-02-07T09:35:13.097Z,1006.66
2019-02-07T09:36:13.106Z,1006.74
2019-02-07T09:37:13.120Z,1006.70
2019-02-07T09:38:13.205Z,1006.71
2019-02-07T09:39:13.146Z,1006.69
2019-02-07T09:40:13.160Z,1006.73
2019-02-07T09:41:13.173Z,1006.69
2019-02-07T09:42:13.185Z,1006.66
2019-02-07T09:43:13.201Z,1006.62
2019-02-07T09:44:13.211Z,1006.63
2019-02-07T09:45:13.229Z,1006.57
2019-02-07T09:46:13.240Z,1006.59
2019-02-07T09:47:13.255Z,1006.61
2019-02-07T09:48:21.370Z,1006.60
2019-02-07T09:49:13.283Z,1006.64
2019-02-07T09:50:13.296Z,1006.65
2019-02-07T09:51:13.309Z,1006.64
2019-02-07T09:52:13.322Z,1006.71
2019-02-07T09:53:23.495Z,1006.75
2019-02-07T09:54:13.352Z,1006.66
2019-02-07T09:55:13.366Z,1006.58
2019-02-07T09:56:13.379Z,1006.51
2019-02-07T09:57:13.394Z,1006.49
2019-02-07T09:58:13.408Z,1006.45
2019-02-07T09:59:13.423Z,1006.46
2019-02-07T10:00:13.434Z,1006.45
2019-02-07T10:01:13.450Z,1006.46
2019-02-07T10:02:13.461Z,1006.49
2019-02-07T10:03:13.481Z,1006.54
2019-02-07T10:04:13.491Z,1006.51
2019-02-07T10:05:13.505Z,1006.48
2019-02-07T10:06:13.516Z,1006.48
2019-02-07T10:07:13.531Z,1006.48
2019-02-07T10:08:13.545Z,1006.47
2019-02-07T10:09:13.556Z,1006.47
2019-02-07T10:10:13.570Z,1006.45
2019-02-07T10:11:13.585Z,1006.43
2019-02-07T10:12:13.601Z,1006.40
2019-02-07T10:13:13.612Z,1006.43
2019-02-07T10:14:13.624Z,1006.36
2019-02-07T10:15:14.311Z,1006.38
2019-02-07T10:16:13.651Z,1006.28
2019-02-07T10:17:13.665Z,1006.31
2019-02-07T10:18:13.676Z,1006.24
2019-02-07T10:19:13.695Z,1006.23
2019-02-07T10:20:13.702Z,1006.22
2019-02-07T10:21:13.735Z,1006.22
2019-02-07T10:22:13.806Z,1006.14
2019-02-07T10:23:13.806Z,1006.15
2019-02-07T10:24:13.806Z,1006.15
2019-02-07T10:25:13.812Z,1006.13
2019-02-07T10:26:13.860Z,1006.14
2019-02-07T10:27:13.863Z,1006.13
2019-02-07T10:28:13.870Z,1006.08
2019-02-07T10:29:13.845Z,1006.03
2019-02-07T10:30:13.876Z,1005.99
2019-02-07T10:31:13.858Z,1005.97
2019-02-07T10:32:13.862Z,1005.92
2019-02-07T10:33:13.874Z,1005.92
2019-02-07T10:34:13.888Z,1005.90
2019-02-07T10:35:22.641Z,1005.91
2019-02-07T10:36:13.914Z,1005.91
2019-02-07T10:37:13.929Z,1005.90
2019-02-07T10:38:13.942Z,1005.94
2019-02-07T10:39:13.960Z,1005.93
2019-02-07T10:40:13.967Z,1005.91
2019-02-07T10:41:13.981Z,1005.96
2019-02-07T10:42:13.995Z,1005.91
2019-02-07T10:43:14.013Z,1005.92
2019-02-07T10:44:14.021Z,1006.03
2019-02-07T10:45:14.034Z,1005.98
2019-02-07T10:46:14.046Z,1006.00
2019-02-07T10:47:14.062Z,1005.96
2019-02-07T10:48:14.076Z,1005.93
2019-02-07T10:49:14.089Z,1005.85
2019-02-07T10:50:14.102Z,1005.87
2019-02-07T10:51:14.117Z,1005.83
2019-02-07T10:52:14.131Z,1005.79
2019-02-07T10:53:14.144Z,1005.78
2019-02-07T10:54:14.158Z,1005.73
2019-02-07T10:55:14.175Z,1005.76
2019-02-07T10:56:14.188Z,1005.73
2019-02-07T10:57:14.202Z,1005.71
2019-02-07T10:58:14.215Z,1005.69
2019-02-07T10:59:14.231Z,1005.64
2019-02-07T11:00:14.245Z,1005.68
2019-02-07T11:01:14.261Z,1005.63
2019-02-07T11:02:14.276Z,1005.61
2019-02-07T11:03:14.290Z,1005.61
2019-02-07T11:04:14.303Z,1005.62
2019-02-07T11:05:14.318Z,1005.55
2019-02-07T11:06:14.335Z,1005.58
2019-02-07T11:07:14.350Z,1005.60
2019-02-07T11:08:14.367Z,1005.61
2019-02-07T11:09:14.385Z,1005.51
2019-02-07T11:10:14.395Z,1005.55
2019-02-07T11:11:14.414Z,1005.56
2019-02-07T11:12:14.429Z,1005.58
2019-02-07T11:13:14.446Z,1005.57
2019-02-07T11:14:14.460Z,1005.52
2019-02-07T11:15:14.476Z,1005.46
2019-02-07T11:16:14.488Z,1005.46
2019-02-07T11:17:14.504Z,1005.44
2019-02-07T11:18:14.523Z,1005.45
2019-02-07T11:19:21.016Z,1005.47
2019-02-07T11:20:14.557Z,1005.40
2019-02-07T11:21:14.573Z,1005.44
2019-02-07T11:22:14.590Z,1005.34
2019-02-07T11:23:14.604Z,1005.40
2019-02-07T11:24:14.620Z,1005.40
2019-02-07T11:25:14.638Z,1005.35
2019-02-07T11:26:14.653Z,1005.29
2019-02-07T11:27:14.672Z,1005.25
2019-02-07T11:28:14.687Z,1005.25
2019-02-07T11:29:14.704Z,1005.09
2019-02-07T11:30:14.719Z,1005.05
2019-02-07T11:31:14.734Z,1005.03
2019-02-07T11:32:14.753Z,1004.97
2019-02-07T11:33:14.779Z,1004.98
2019-02-07T11:34:14.786Z,1004.97
2019-02-07T11:35:14.903Z,1004.96
2019-02-07T11:36:14.820Z,1004.95
2019-02-07T11:37:14.841Z,1004.98
2019-02-07T11:38:14.854Z,1004.95
2019-02-07T11:39:14.870Z,1004.95
2019-02-07T11:40:14.888Z,1004.99
2019-02-07T11:41:14.904Z,1004.95
2019-02-07T11:42:14.920Z,1004.96
2019-02-07T11:43:14.937Z,1004.88
2019-02-07T11:44:14.952Z,1004.95
2019-02-07T11:45:14.970Z,1004.86
2019-02-07T11:46:14.986Z,1004.94
2019-02-07T11:47:15.003Z,1004.95
2019-02-07T11:48:15.019Z,1004.94
2019-02-07T11:49:15.036Z,1004.90
2019-02-07T11:50:15.061Z,1004.90
2019-02-07T11:51:15.074Z,1004.92
2019-02-07T11:52:15.085Z,1004.89
2019-02-07T11:53:15.100Z,1004.85
2019-02-07T11:54:15.121Z,1004.87
2019-02-07T11:55:15.137Z,1004.90
2019-02-07T11:56:15.149Z,1004.82
2019-02-07T11:57:15.169Z,1004.85
2019-02-07T11:58:15.183Z,1004.86
2019-02-07T11:59:15.201Z,1004.79
2019-02-07T12:00:15.255Z,1004.73
2019-02-07T12:01:15.233Z,1004.77
2019-02-07T12:02:15.250Z,1004.75
2019-02-07T12:03:15.266Z,1004.80
2019-02-07T12:04:15.283Z,1004.83
2019-02-07T12:05:17.252Z,1004.84